createdAt,value
2023-07-09T00:01:19.621Z,101728.28
2023-07-09T00:03:47.634Z,101727.72
2023-07-09T00:06:14.363Z,101718.41
2023-07-09T00:08:45.330Z,101720.78
2023-07-09T00:11:11.666Z,101722.34
2023-07-09T00:13:38.046Z,101722.91
2023-07-09T00:16:13.380Z,101711.09
2023-07-09T00:18:39.782Z,101713.22
2023-07-09T00:21:06.160Z,101714.22
2023-07-09T00:23:32.688Z,101709.28
2023-07-09T00:25:59.090Z,101716.47
2023-07-09T00:28:25.489Z,101721.50
2023-07-09T00:30:51.858Z,101720.38
2023-07-09T00:33:18.506Z,101722.00
2023-07-09T00:35:46.742Z,101711.56
2023-07-09T00:38:23.478Z,101709.13
2023-07-09T00:41:05.111Z,101706.97
2023-07-09T00:43:35.062Z,101713.34
2023-07-09T00:46:18.231Z,101713.50
2023-07-09T00:48:47.713Z,101720.94
2023-07-09T00:51:17.235Z,101717.41
2023-07-09T00:53:46.316Z,101718.47
2023-07-09T00:56:24.666Z,101715.94
2023-07-09T00:58:51.218Z,101729.84
2023-07-09T01:01:19.714Z,101726.81
2023-07-09T01:03:50.331Z,101720.94
2023-07-09T01:06:24.813Z,101718.53
2023-07-09T01:08:52.193Z,101727.06
2023-07-09T01:11:20.488Z,101721.44
2023-07-09T01:13:46.972Z,101734.25
2023-07-09T01:16:13.480Z,101717.09
2023-07-09T01:18:40.003Z,101734.66
2023-07-09T01:21:10.799Z,101732.47
2023-07-09T01:23:37.157Z,101734.34
2023-07-09T01:26:03.861Z,101722.81
2023-07-09T01:28:30.568Z,101722.81
2023-07-09T01:30:57.042Z,101724.94
2023-07-09T01:33:23.616Z,101714.69
2023-07-09T01:35:50.024Z,101717.38
2023-07-09T01:38:16.407Z,101722.69
2023-07-09T01:40:42.791Z,101720.53
2023-07-09T01:43:09.229Z,101718.91
2023-07-09T01:45:37.588Z,101723.41
2023-07-09T01:48:04.812Z,101721.31
2023-07-09T01:50:31.226Z,101719.41
2023-07-09T01:52:58.334Z,101713.25
2023-07-09T01:55:24.808Z,101726.31
2023-07-09T01:57:51.178Z,101721.22
2023-07-09T02:00:17.848Z,101715.03
2023-07-09T02:02:45.979Z,101728.41
2023-07-09T02:05:15.599Z,101732.13
2023-07-09T02:07:42.622Z,101720.28
2023-07-09T02:10:09.702Z,101731.47
2023-07-09T02:12:36.078Z,101731.47
2023-07-09T02:15:03.344Z,101736.22
2023-07-09T02:17:29.798Z,101736.22
2023-07-09T02:19:56.239Z,101732.44
2023-07-09T02:22:22.736Z,101726.78
2023-07-09T02:24:49.085Z,101734.69
2023-07-09T02:27:18.528Z,101740.59
2023-07-09T02:29:45.300Z,101738.84
2023-07-09T02:32:18.371Z,101737.25
2023-07-09T02:34:44.757Z,101752.25
2023-07-09T02:37:11.131Z,101752.25
2023-07-09T02:39:37.510Z,101741.28
2023-07-09T02:42:04.233Z,101747.72
2023-07-09T02:44:30.618Z,101749.91
2023-07-09T02:46:57.018Z,101748.28
2023-07-09T02:49:23.379Z,101749.34
2023-07-09T02:51:49.818Z,101747.72
2023-07-09T02:54:16.228Z,101744.03
2023-07-09T02:56:42.650Z,101747.72
2023-07-09T02:59:09.021Z,101746.69
2023-07-09T03:01:35.537Z,101748.06
2023-07-09T03:04:03.176Z,101735.50
2023-07-09T03:06:31.028Z,101739.19
2023-07-09T03:08:57.370Z,101737.81
2023-07-09T03:11:23.774Z,101750.31
2023-07-09T03:13:50.240Z,101751.34
2023-07-09T03:16:17.229Z,101755.84
2023-07-09T03:18:43.800Z,101745.47
2023-07-09T03:21:10.430Z,101743.31
2023-07-09T03:23:36.869Z,101749.19
2023-07-09T03:26:03.865Z,101747.56
2023-07-09T03:28:32.646Z,101753.53
2023-07-09T03:30:59.458Z,101750.31
2023-07-09T03:33:26.121Z,101754.50
2023-07-09T03:35:52.929Z,101738.56
2023-07-09T03:38:19.672Z,101747.09
2023-07-09T03:40:46.274Z,101747.66
2023-07-09T03:43:12.815Z,101746.34
2023-07-09T03:45:39.223Z,101740.47
2023-07-09T03:48:06.828Z,101745.00
2023-07-09T03:50:33.882Z,101748.22
2023-07-09T03:53:00.424Z,101747.56
2023-07-09T03:55:26.952Z,101757.22
2023-07-09T03:57:55.076Z,101756.75
2023-07-09T04:00:21.946Z,101739.69
2023-07-09T04:02:48.988Z,101750.94
2023-07-09T04:05:15.482Z,101742.09
2023-07-09T04:07:41.982Z,101746.13
2023-07-09T04:10:08.638Z,101760.59
2023-07-09T04:12:34.982Z,101762.06
2023-07-09T04:15:01.344Z,101768.28
2023-07-09T04:17:27.718Z,101773.19
2023-07-09T04:19:54.166Z,101758.28
2023-07-09T04:22:20.553Z,101771.19
2023-07-09T04:24:46.926Z,101769.09
2023-07-09T04:27:13.672Z,101771.81
2023-07-09T04:29:40.723Z,101770.03
2023-07-09T04:32:09.222Z,101764.81
2023-07-09T04:34:36.046Z,101769.38
2023-07-09T04:37:02.430Z,101771.09
2023-07-09T04:39:28.786Z,101766.88
2023-07-09T04:41:55.183Z,101778.47
2023-07-09T04:44:21.589Z,101765.56
2023-07-09T04:46:48.029Z,101768.41
2023-07-09T04:49:14.420Z,101768.03
2023-07-09T04:51:40.828Z,101771.88
2023-07-09T04:54:07.226Z,101780.56
2023-07-09T04:56:33.627Z,101779.38
2023-07-09T04:59:00.056Z,101785.16
2023-07-09T05:01:26.446Z,101777.38
2023-07-09T05:03:52.843Z,101785.28
2023-07-09T05:06:19.262Z,101786.44
2023-07-09T05:08:45.645Z,101778.84
2023-07-09T05:11:12.025Z,101780.50
2023-07-09T05:13:38.432Z,101787.22
2023-07-09T05:16:05.077Z,101783.25
2023-07-09T05:18:31.689Z,101779.53
2023-07-09T05:20:58.073Z,101785.75
2023-07-09T05:23:25.871Z,101775.91
2023-07-09T05:26:03.242Z,101774.75
2023-07-09T05:28:31.367Z,101774.34
2023-07-09T05:30:57.765Z,101778.91
2023-07-09T05:33:24.191Z,101771.13
2023-07-09T05:35:50.566Z,101776.69
2023-07-09T05:38:17.222Z,101770.91
2023-07-09T05:40:44.206Z,101777.78
2023-07-09T05:43:11.782Z,101780.06
2023-07-09T05:45:41.625Z,101783.09
2023-07-09T05:48:08.154Z,101789.28
2023-07-09T05:50:36.002Z,101785.72
2023-07-09T05:53:02.434Z,101780.09
2023-07-09T05:55:28.866Z,101784.41
2023-07-09T05:57:55.481Z,101779.84
2023-07-09T06:00:21.935Z,101784.28
2023-07-09T06:02:48.463Z,101788.16
2023-07-09T06:05:15.583Z,101789.75
2023-07-09T06:07:42.089Z,101792.75
2023-07-09T06:10:09.632Z,101798.56
2023-07-09T06:12:36.330Z,101798.69
2023-07-09T06:15:03.122Z,101802.31
2023-07-09T06:17:29.503Z,101794.56
2023-07-09T06:19:57.254Z,101796.34
2023-07-09T06:22:25.694Z,101804.97
2023-07-09T06:24:52.061Z,101807.72
2023-07-09T06:27:18.404Z,101804.88
2023-07-09T06:29:44.836Z,101801.91
2023-07-09T06:32:11.242Z,101799.81
2023-07-09T06:34:37.633Z,101814.88
2023-07-09T06:37:04.276Z,101807.34
2023-07-09T06:39:30.664Z,101815.88
2023-07-09T06:41:57.023Z,101813.34
2023-07-09T06:44:23.398Z,101816.25
2023-07-09T06:46:49.764Z,101823.91
2023-07-09T06:49:16.124Z,101825.84
2023-07-09T06:51:42.498Z,101829.94
2023-07-09T06:54:09.475Z,101825.13
2023-07-09T06:56:36.037Z,101824.66
2023-07-09T06:59:02.415Z,101832.09
2023-07-09T07:01:28.801Z,101829.25
2023-07-09T07:03:55.246Z,101829.47
2023-07-09T07:06:21.616Z,101822.41
2023-07-09T07:08:48.029Z,101828.19
2023-07-09T07:11:14.426Z,101823.28
2023-07-09T07:13:41.824Z,101823.00
2023-07-09T07:16:11.402Z,101832.56
2023-07-09T07:18:38.649Z,101819.66
2023-07-09T07:21:06.037Z,101825.25
2023-07-09T07:23:32.480Z,101829.34
2023-07-09T07:25:59.184Z,101830.41
2023-07-09T07:28:25.637Z,101824.13
2023-07-09T07:31:06.375Z,101815.69
2023-07-09T07:33:32.733Z,101829.38
2023-07-09T07:38:28.469Z,101826.84
2023-07-09T07:40:54.939Z,101820.31
2023-07-09T07:43:21.323Z,101820.69
2023-07-09T07:45:49.092Z,101821.13
2023-07-09T07:48:15.617Z,101826.47
2023-07-09T07:50:42.044Z,101819.25
2023-07-09T07:53:09.178Z,101816.56
2023-07-09T07:55:36.984Z,101821.91
2023-07-09T07:58:03.857Z,101818.47
2023-07-09T08:00:31.452Z,101812.03
2023-07-09T08:02:57.943Z,101813.50
2023-07-09T08:05:24.457Z,101816.41
2023-07-09T08:07:50.828Z,101810.59
2023-07-09T08:10:17.220Z,101810.38
2023-07-09T08:12:43.656Z,101808.09
2023-07-09T08:15:10.408Z,101804.06
2023-07-09T08:17:36.934Z,101801.56
2023-07-09T08:20:03.612Z,101800.16
2023-07-09T08:22:29.954Z,101809.31
2023-07-09T08:24:56.327Z,101802.28
2023-07-09T08:27:22.806Z,101801.28
2023-07-09T08:29:49.151Z,101811.75
2023-07-09T08:32:15.847Z,101816.78
2023-07-09T08:35:03.191Z,101809.16
2023-07-09T08:37:29.611Z,101816.53
2023-07-09T08:39:56.078Z,101802.72
2023-07-09T08:42:30.632Z,101814.09
2023-07-09T08:45:20.302Z,101802.06
2023-07-09T08:47:52.794Z,101805.31
2023-07-09T08:50:25.638Z,101812.47
2023-07-09T08:52:54.752Z,101807.34
2023-07-09T08:55:29.227Z,101808.22
2023-07-09T08:58:02.209Z,101815.53
2023-07-09T09:00:40.777Z,101802.78
2023-07-09T09:03:16.124Z,101803.31
2023-07-09T09:05:46.369Z,101801.03
2023-07-09T09:08:39.623Z,101795.41
2023-07-09T09:11:31.311Z,101794.34
2023-07-09T09:14:02.109Z,101791.84
2023-07-09T09:16:39.019Z,101801.75
2023-07-09T09:19:26.699Z,101796.19
2023-07-09T09:22:02.922Z,101791.16
2023-07-09T09:24:44.443Z,101800.25
2023-07-09T09:27:10.856Z,101793.34
2023-07-09T09:29:37.218Z,101790.66
2023-07-09T09:32:19.111Z,101801.75
2023-07-09T09:34:45.514Z,101790.19
2023-07-09T09:37:12.890Z,101797.31
2023-07-09T09:39:39.868Z,101799.91
2023-07-09T09:42:12.223Z,101783.63
2023-07-09T09:44:44.938Z,101789.66
2023-07-09T09:47:12.425Z,101787.03
2023-07-09T09:49:43.275Z,101782.31
2023-07-09T09:52:18.862Z,101785.44
2023-07-09T09:54:52.252Z,101779.53
2023-07-09T09:57:22.100Z,101777.59
2023-07-09T09:59:48.748Z,101766.25
2023-07-09T10:02:19.786Z,101780.81
2023-07-09T10:04:46.974Z,101772.06
2023-07-09T10:07:23.956Z,101774.09
2023-07-09T10:09:55.704Z,101768.94
2023-07-09T10:12:41.609Z,101776.53
2023-07-09T10:15:20.149Z,101773.81
2023-07-09T10:18:02.806Z,101781.09
2023-07-09T10:21:17.201Z,101779.78
2023-07-09T10:23:52.378Z,101765.47
2023-07-09T10:26:26.440Z,101770.50
2023-07-09T10:29:04.889Z,101776.75
2023-07-09T10:31:59.467Z,101763.09
2023-07-09T10:34:52.507Z,101758.22
2023-07-09T10:37:57.285Z,101759.31
2023-07-09T10:40:37.615Z,101751.59
2023-07-09T10:43:06.960Z,101747.03
2023-07-09T10:45:44.120Z,101745.91
2023-07-09T10:48:34.016Z,101740.34
2023-07-09T10:51:01.317Z,101743.19
2023-07-09T10:53:38.507Z,101745.13
2023-07-09T10:56:18.242Z,101746.00
2023-07-09T10:59:17.130Z,101737.66
2023-07-09T11:01:48.264Z,101734.91
2023-07-09T11:04:40.538Z,101738.09
2023-07-09T11:07:12.233Z,101724.63
2023-07-09T11:09:43.502Z,101736.06
2023-07-09T11:12:15.204Z,101734.63
2023-07-09T11:14:50.324Z,101730.34
2023-07-09T11:17:20.307Z,101732.00
2023-07-09T11:19:48.993Z,101750.00
2023-07-09T11:22:41.056Z,101739.22
2023-07-09T11:25:09.441Z,101751.63
2023-07-09T11:27:47.323Z,101743.31
2023-07-09T11:30:28.481Z,101743.31
2023-07-09T11:33:10.427Z,101725.19
2023-07-09T11:35:50.423Z,101727.38
2023-07-09T11:38:20.779Z,101719.56
2023-07-09T11:40:49.140Z,101717.69
2023-07-09T11:43:47.845Z,101711.22
2023-07-09T11:46:19.517Z,101715.41
2023-07-09T11:48:46.220Z,101716.56
2023-07-09T11:51:18.279Z,101718.16
2023-07-09T11:53:50.328Z,101694.25
2023-07-09T11:56:20.317Z,101690.03
2023-07-09T11:58:56.024Z,101699.59
2023-07-09T12:01:27.582Z,101689.50
2023-07-09T12:03:54.016Z,101686.84
2023-07-09T12:06:25.262Z,101686.56
2023-07-09T12:08:52.660Z,101686.16
2023-07-09T12:11:44.556Z,101695.63
2023-07-09T12:14:17.720Z,101705.94
2023-07-09T12:16:46.541Z,101712.94
2023-07-09T12:19:15.297Z,101706.97
2023-07-09T12:21:45.563Z,101703.78
2023-07-09T12:24:26.939Z,101707.97
2023-07-09T12:26:59.075Z,101698.75
2023-07-09T12:29:30.801Z,101689.44
2023-07-09T12:31:58.658Z,101690.94
2023-07-09T12:34:25.737Z,101688.44
2023-07-09T12:36:54.612Z,101677.72
2023-07-09T12:39:32.524Z,101678.88
2023-07-09T12:42:02.335Z,101681.75
2023-07-09T12:44:32.389Z,101675.81
2023-07-09T12:46:58.996Z,101662.09
2023-07-09T12:49:27.812Z,101667.72
2023-07-09T12:51:59.491Z,101656.53
2023-07-09T12:54:25.934Z,101654.16
2023-07-09T12:56:54.267Z,101652.88
2023-07-09T12:59:21.952Z,101658.31
2023-07-09T13:02:01.432Z,101659.00
2023-07-09T13:04:33.525Z,101648.66
2023-07-09T13:06:59.929Z,101641.59
2023-07-09T13:09:27.366Z,101654.66
2023-07-09T13:11:55.826Z,101650.44
2023-07-09T13:14:27.718Z,101651.06
2023-07-09T13:17:03.476Z,101647.72
2023-07-09T13:19:29.812Z,101651.50
2023-07-09T13:21:56.222Z,101655.81
2023-07-09T13:24:29.687Z,101653.38
2023-07-09T13:26:56.764Z,101651.81
2023-07-09T13:29:23.121Z,101645.22
2023-07-09T13:31:50.150Z,101634.34
2023-07-09T13:34:25.087Z,101622.25
2023-07-09T13:36:52.748Z,101610.34
2023-07-09T13:39:19.100Z,101591.41
2023-07-09T13:41:47.566Z,101597.59
2023-07-09T13:44:17.371Z,101588.44
2023-07-09T13:46:44.015Z,101590.44
2023-07-09T13:49:13.003Z,101588.91
2023-07-09T13:51:39.405Z,101599.13
2023-07-09T13:54:16.045Z,101596.41
2023-07-09T13:56:42.516Z,101584.88
2023-07-09T13:59:14.802Z,101592.09
2023-07-09T14:01:41.558Z,101617.25
2023-07-09T14:04:11.881Z,101647.13
2023-07-09T14:06:38.574Z,101653.53
2023-07-09T14:09:05.294Z,101684.97
2023-07-09T14:11:31.662Z,101685.31
2023-07-09T14:13:58.089Z,101693.41
2023-07-09T14:16:24.713Z,101691.44
2023-07-09T14:18:51.043Z,101684.69
2023-07-09T14:21:24.481Z,101696.41
2023-07-09T14:23:50.917Z,101701.56
2023-07-09T14:26:17.465Z,101702.47
2023-07-09T14:28:43.913Z,101712.13
2023-07-09T14:31:29.046Z,101700.72
2023-07-09T14:34:05.813Z,101709.34
2023-07-09T14:36:32.198Z,101699.22
2023-07-09T14:38:58.572Z,101700.50
2023-07-09T14:41:27.209Z,101692.00
2023-07-09T14:43:58.209Z,101686.34
2023-07-09T14:46:24.613Z,101691.63
2023-07-09T14:48:50.997Z,101655.03
2023-07-09T14:51:17.735Z,101671.19
2023-07-09T14:53:44.142Z,101673.47
2023-07-09T14:56:13.147Z,101689.16
2023-07-09T14:58:39.548Z,101689.75
2023-07-09T15:01:10.969Z,101679.91
2023-07-09T15:03:37.347Z,101680.81
2023-07-09T15:06:03.740Z,101693.78
2023-07-09T15:08:30.084Z,101682.56
2023-07-09T15:10:56.509Z,101704.56
2023-07-09T15:13:35.205Z,101700.59
2023-07-09T15:16:03.301Z,101692.09
2023-07-09T15:18:29.715Z,101713.00
2023-07-09T15:20:58.885Z,101719.69
2023-07-09T15:23:26.231Z,101742.16
2023-07-09T15:25:52.841Z,101804.31
2023-07-09T15:28:19.524Z,101905.06
2023-07-09T15:30:47.003Z,101918.47
2023-07-09T15:33:16.875Z,101870.78
2023-07-09T15:35:45.482Z,101844.88
2023-07-09T15:38:30.098Z,101808.22
2023-07-09T15:40:57.661Z,101789.03
2023-07-09T15:43:25.196Z,101813.97
2023-07-09T15:45:55.171Z,101832.41
2023-07-09T15:48:32.633Z,101834.03
2023-07-09T15:50:59.764Z,101814.50
2023-07-09T15:53:26.851Z,101816.56
2023-07-09T15:55:58.837Z,101825.84
2023-07-09T15:58:28.599Z,101835.97
2023-07-09T16:00:55.172Z,101843.97
2023-07-09T16:03:23.339Z,101847.19
2023-07-09T16:05:51.082Z,101835.38
2023-07-09T16:08:17.583Z,101849.31
2023-07-09T16:10:44.203Z,101843.47
2023-07-09T16:13:20.400Z,101841.91
2023-07-09T16:15:47.547Z,101846.75
2023-07-09T16:18:14.044Z,101874.03
2023-07-09T16:20:40.538Z,101887.97
2023-07-09T16:23:15.325Z,101878.09
2023-07-09T16:25:41.781Z,101863.16
2023-07-09T16:28:13.761Z,101856.47
2023-07-09T16:30:40.204Z,101842.50
2023-07-09T16:33:06.657Z,101836.34
2023-07-09T16:35:33.103Z,101843.56
2023-07-09T16:38:00.210Z,101832.84
2023-07-09T16:40:29.187Z,101837.63
2023-07-09T16:42:57.862Z,101829.03
2023-07-09T16:45:26.393Z,101822.75
2023-07-09T16:47:52.951Z,101831.19
2023-07-09T16:50:25.667Z,101824.47
2023-07-09T16:52:54.473Z,101833.09
2023-07-09T16:55:25.117Z,101828.56
2023-07-09T16:57:56.843Z,101826.00
2023-07-09T17:00:30.982Z,101828.16
2023-07-09T17:02:59.200Z,101832.69
2023-07-09T17:05:27.557Z,101835.38
2023-07-09T17:07:54.374Z,101822.53
2023-07-09T17:10:21.337Z,101833.22
2023-07-09T17:12:58.085Z,101834.81
2023-07-09T17:15:32.846Z,101830.00
2023-07-09T17:18:00.952Z,101846.34
2023-07-09T17:20:29.861Z,101847.97
2023-07-09T17:25:29.272Z,101856.25
2023-07-09T17:27:57.182Z,101848.44
2023-07-09T17:30:24.697Z,101849.22
2023-07-09T17:32:51.165Z,101852.06
2023-07-09T17:35:17.640Z,101850.19
2023-07-09T17:37:48.321Z,101861.97
2023-07-09T17:40:41.939Z,101859.31
2023-07-09T17:43:14.560Z,101865.81
2023-07-09T17:45:40.913Z,101876.00
2023-07-09T17:48:39.750Z,101891.56
2023-07-09T17:51:06.346Z,101888.34
2023-07-09T17:53:35.229Z,101898.78
2023-07-09T17:56:02.243Z,101900.66
2023-07-09T17:58:35.255Z,101900.91
2023-07-09T18:01:05.348Z,101902.78
2023-07-09T18:03:32.147Z,101893.69
2023-07-09T18:05:59.063Z,101897.41
2023-07-09T18:08:25.785Z,101891.25
2023-07-09T18:10:53.001Z,101901.41
2023-07-09T18:13:22.731Z,101902.78
2023-07-09T18:15:51.114Z,101909.16
2023-07-09T18:18:18.102Z,101899.56
2023-07-09T18:20:44.840Z,101916.44
2023-07-09T18:23:11.461Z,101903.31
2023-07-09T18:25:40.344Z,101904.69
2023-07-09T18:28:11.584Z,101889.72
2023-07-09T18:30:38.148Z,101887.28
2023-07-09T18:33:06.614Z,101886.72
2023-07-09T18:35:36.254Z,101907.00
2023-07-09T18:38:08.289Z,101905.13
2023-07-09T18:40:37.832Z,101895.19
2023-07-09T18:43:24.541Z,101885.03
2023-07-09T18:45:57.000Z,101882.91
2023-07-09T18:48:25.802Z,101882.41
2023-07-09T18:50:53.569Z,101876.00
2023-07-09T18:53:20.455Z,101871.44
2023-07-09T18:55:46.848Z,101877.88
2023-07-09T18:58:20.404Z,101885.06
2023-07-09T19:00:47.059Z,101876.97
2023-07-09T19:03:15.835Z,101865.44
2023-07-09T19:05:45.135Z,101874.75
2023-07-09T19:08:22.907Z,101881.34
2023-07-09T19:10:49.538Z,101885.31
2023-07-09T19:13:16.172Z,101884.19
2023-07-09T19:15:43.584Z,101878.47
2023-07-09T19:18:19.094Z,101892.28
2023-07-09T19:20:45.857Z,101889.53
2023-07-09T19:23:16.642Z,101881.13
2023-07-09T19:25:43.038Z,101893.41
2023-07-09T19:28:09.369Z,101887.22
2023-07-09T19:30:35.783Z,101876.78
2023-07-09T19:33:02.184Z,101890.66
2023-07-09T19:35:28.769Z,101878.03
2023-07-09T19:37:55.136Z,101879.91
2023-07-09T19:40:26.362Z,101879.28
2023-07-09T19:42:54.527Z,101878.44
2023-07-09T19:45:26.749Z,101884.59
2023-07-09T19:47:55.844Z,101881.53
2023-07-09T19:50:22.213Z,101897.78
2023-07-09T19:52:49.665Z,101887.31
2023-07-09T19:55:30.318Z,101895.00
2023-07-09T19:57:56.846Z,101905.66
2023-07-09T20:00:23.570Z,101902.19
2023-07-09T20:02:50.649Z,101895.50
2023-07-09T20:05:25.912Z,101896.00
2023-07-09T20:08:01.674Z,101886.34
2023-07-09T20:10:28.867Z,101893.28
2023-07-09T20:12:57.073Z,101886.28
2023-07-09T20:15:26.153Z,101899.84
2023-07-09T20:17:55.907Z,101907.03
2023-07-09T20:20:23.962Z,101905.75
2023-07-09T20:22:50.615Z,101899.09
2023-07-09T20:25:23.447Z,101903.38
2023-07-09T20:27:51.802Z,101912.19
2023-07-09T20:30:20.074Z,101905.19
2023-07-09T20:32:48.083Z,101915.09
2023-07-09T20:35:19.364Z,101912.66
2023-07-09T20:37:45.905Z,101916.06
2023-07-09T20:40:14.376Z,101927.28
2023-07-09T20:42:41.454Z,101929.41
2023-07-09T20:45:14.394Z,101938.50
2023-07-09T20:47:40.831Z,101926.50
2023-07-09T20:50:13.582Z,101921.47
2023-07-09T20:52:40.492Z,101934.53
2023-07-09T20:55:10.146Z,101925.69
2023-07-09T20:57:36.584Z,101920.03
2023-07-09T21:00:04.632Z,101920.28
2023-07-09T21:02:31.129Z,101928.84
2023-07-09T21:04:57.670Z,101925.63
2023-07-09T21:07:25.273Z,101917.88
2023-07-09T21:09:51.679Z,101912.13
2023-07-09T21:12:18.984Z,101923.25
2023-07-09T21:14:46.453Z,101910.94
2023-07-09T21:17:21.364Z,101909.09
2023-07-09T21:19:47.747Z,101915.00
2023-07-09T21:22:15.705Z,101934.25
2023-07-09T21:24:43.933Z,101931.25
2023-07-09T21:27:10.493Z,101931.81
2023-07-09T21:29:37.005Z,101923.03
2023-07-09T21:32:07.186Z,101920.47
2023-07-09T21:34:35.297Z,101919.78
2023-07-09T21:37:24.971Z,101908.22
2023-07-09T21:39:51.453Z,101917.63
2023-07-09T21:42:17.999Z,101942.84
2023-07-09T21:44:44.514Z,101957.38
2023-07-09T21:47:18.057Z,101940.03
2023-07-09T21:49:45.313Z,101924.22
2023-07-09T21:52:20.552Z,101936.47
2023-07-09T21:55:10.895Z,101946.56
2023-07-09T21:57:33.740Z,101954.31
2023-07-09T22:00:00.175Z,101960.25
2023-07-09T22:02:30.817Z,101933.06
2023-07-09T22:04:57.399Z,101948.25
2023-07-09T22:07:25.185Z,101956.16
2023-07-09T22:09:56.176Z,101960.28
2023-07-09T22:12:23.410Z,101975.28
2023-07-09T22:14:54.996Z,101972.06
2023-07-09T22:17:23.639Z,101969.31
2023-07-09T22:19:50.024Z,101989.88
2023-07-09T22:22:16.534Z,101986.06
2023-07-09T22:24:42.897Z,101984.47
2023-07-09T22:27:10.861Z,101968.97
2023-07-09T22:29:37.259Z,101958.72
2023-07-09T22:32:04.389Z,101970.69
2023-07-09T22:34:31.114Z,101977.63
2023-07-09T22:36:57.443Z,101966.16
2023-07-09T22:39:23.822Z,101955.78
2023-07-09T22:41:50.206Z,101956.97
2023-07-09T22:44:16.568Z,101961.06
2023-07-09T22:46:44.153Z,101956.25
2023-07-09T22:49:15.639Z,101954.75
2023-07-09T22:51:42.510Z,101959.50
2023-07-09T22:54:13.808Z,101970.13
2023-07-09T22:56:40.189Z,101961.59
2023-07-09T22:59:06.556Z,101955.53
2023-07-09T23:01:33.281Z,101961.00
2023-07-09T23:03:59.737Z,101951.94
2023-07-09T23:06:28.058Z,101955.97
2023-07-09T23:08:56.813Z,101961.00
2023-07-09T23:11:30.543Z,101960.75
2023-07-09T23:13:58.253Z,101960.19
2023-07-09T23:16:27.618Z,101957.22
2023-07-09T23:18:54.156Z,101968.44
2023-07-09T23:21:23.307Z,101970.03
2023-07-09T23:23:54.610Z,101962.06
2023-07-09T23:26:20.965Z,101950.78
2023-07-09T23:28:47.362Z,101950.78
2023-07-09T23:31:25.251Z,101948.00
2023-07-09T23:33:51.542Z,101962.66
2023-07-09T23:36:17.937Z,101962.66
2023-07-09T23:38:44.388Z,101966.06
2023-07-09T23:41:23.896Z,101980.72
2023-07-09T23:43:51.100Z,101971.59
2023-07-09T23:46:17.505Z,101964.91
2023-07-09T23:48:48.932Z,101967.91
2023-07-09T23:51:17.987Z,101964.13
2023-07-09T23:53:44.377Z,101966.44
2023-07-09T23:56:22.444Z,101969.31
2023-07-09T23:58:49.856Z,101969.56
